sensor_id;sensor_type;location;lat;lon;timestamp;pressure;altitude;pressure_sealevel;temperature;humidity
13013;BME280;22580;57.670;12.006;2023-02-17T00:01:52;100913.69;;;14.17;92.71
13013;BME280;22580;57.670;12.006;2023-02-17T00:04:25;100868.69;;;13.66;93.36
13013;BME280;22580;57.670;12.006;2023-02-17T00:06:53;100856.34;;;13.64;93.30
13013;BME280;22580;57.670;12.006;2023-02-17T00:09:23;100858.53;;;13.70;93.64
13013;BME280;22580;57.670;12.006;2023-02-17T00:11:56;100784.41;;;13.02;94.43
13013;BME280;22580;57.670;12.006;2023-02-17T00:14:30;100881.13;;;13.67;94.01
13013;BME280;22580;57.670;12.006;2023-02-17T00:17:14;100856.72;;;13.59;94.52
13013;BME280;22580;57.670;12.006;2023-02-17T00:19:41;100879.47;;;13.44;94.99
13013;BME280;22580;57.670;12.006;2023-02-17T00:22:08;100806.28;;;12.97;95.02
13013;BME280;22580;57.670;12.006;2023-02-17T00:24:39;100786.53;;;12.87;95.48
13013;BME280;22580;57.670;12.006;2023-02-17T00:27:09;100885.91;;;13.64;95.02
13013;BME280;22580;57.670;12.006;2023-02-17T00:29:50;100880.66;;;13.62;95.39
13013;BME280;22580;57.670;12.006;2023-02-17T00:32:23;100846.06;;;13.69;94.64
13013;BME280;22580;57.670;12.006;2023-02-17T00:34:50;100841.66;;;13.79;94.04
13013;BME280;22580;57.670;12.006;2023-02-17T00:37:22;100828.75;;;13.62;93.77
13013;BME280;22580;57.670;12.006;2023-02-17T00:39:51;100793.31;;;13.25;94.29
13013;BME280;22580;57.670;12.006;2023-02-17T00:42:19;100837.63;;;13.73;94.12
13013;BME280;22580;57.670;12.006;2023-02-17T00:44:46;100846.78;;;14.03;93.58
13013;BME280;22580;57.670;12.006;2023-02-17T00:47:24;100851.72;;;13.87;94.23
13013;BME280;22580;57.670;12.006;2023-02-17T00:49:50;100848.59;;;13.82;93.56
13013;BME280;22580;57.670;12.006;2023-02-17T00:52:17;100752.91;;;13.15;93.54
13013;BME280;22580;57.670;12.006;2023-02-17T00:54:48;100752.31;;;13.11;94.42
13013;BME280;22580;57.670;12.006;2023-02-17T00:57:20;100829.94;;;13.80;93.84
13013;BME280;22580;57.670;12.006;2023-02-17T00:59:53;100759.66;;;13.21;94.30
13013;BME280;22580;57.670;12.006;2023-02-17T01:02:25;100826.50;;;13.35;95.28
13013;BME280;22580;57.670;12.006;2023-02-17T01:04:52;100832.22;;;13.41;95.52
13013;BME280;22580;57.670;12.006;2023-02-17T01:07:20;100825.34;;;13.60;94.81
13013;BME280;22580;57.670;12.006;2023-02-17T01:09:47;100810.69;;;13.64;94.83
13013;BME280;22580;57.670;12.006;2023-02-17T01:12:14;100789.56;;;13.59;94.57
13013;BME280;22580;57.670;12.006;2023-02-17T01:14:41;100787.31;;;13.96;93.47
13013;BME280;22580;57.670;12.006;2023-02-17T01:17:10;100797.94;;;13.98;93.33
13013;BME280;22580;57.670;12.006;2023-02-17T01:19:41;100782.72;;;13.87;93.42
13013;BME280;22580;57.670;12.006;2023-02-17T01:22:09;100797.84;;;13.67;94.70
13013;BME280;22580;57.670;12.006;2023-02-17T01:24:40;100793.34;;;13.89;94.04
13013;BME280;22580;57.670;12.006;2023-02-17T01:27:08;100800.38;;;13.80;94.24
13013;BME280;22580;57.670;12.006;2023-02-17T01:29:41;100804.41;;;13.74;93.92
13013;BME280;22580;57.670;12.006;2023-02-17T01:32:09;100779.47;;;13.52;94.64
13013;BME280;22580;57.670;12.006;2023-02-17T01:34:38;100731.97;;;13.20;95.46
13013;BME280;22580;57.670;12.006;2023-02-17T01:37:15;100768.13;;;13.48;95.32
13013;BME280;22580;57.670;12.006;2023-02-17T01:39:44;100741.03;;;12.97;96.82
13013;BME280;22580;57.670;12.006;2023-02-17T01:42:14;100767.25;;;12.82;98.38
13013;BME280;22580;57.670;12.006;2023-02-17T01:47:59;100765.25;;;13.06;98.27
13013;BME280;22580;57.670;12.006;2023-02-17T01:50:33;100678.50;;;12.74;97.58
13013;BME280;22580;57.670;12.006;2023-02-17T01:53:02;100730.53;;;13.48;95.74
13013;BME280;22580;57.670;12.006;2023-02-17T01:55:31;100748.22;;;13.51;96.17
13013;BME280;22580;57.670;12.006;2023-02-17T01:58:03;100733.00;;;13.72;94.96
13013;BME280;22580;57.670;12.006;2023-02-17T02:00:32;100733.75;;;13.31;96.45
13013;BME280;22580;57.670;12.006;2023-02-17T02:03:00;100701.88;;;12.94;97.51
13013;BME280;22580;57.670;12.006;2023-02-17T02:05:32;100720.34;;;13.31;96.33
13013;BME280;22580;57.670;12.006;2023-02-17T02:08:02;100727.16;;;13.67;95.45
13013;BME280;22580;57.670;12.006;2023-02-17T02:10:29;100720.72;;;13.58;95.67
13013;BME280;22580;57.670;12.006;2023-02-17T02:12:56;100715.78;;;13.74;95.20
13013;BME280;22580;57.670;12.006;2023-02-17T02:15:29;100719.28;;;13.54;95.81
13013;BME280;22580;57.670;12.006;2023-02-17T02:18:14;100701.47;;;13.21;96.52
13013;BME280;22580;57.670;12.006;2023-02-17T02:21:14;100673.94;;;13.40;95.50
13013;BME280;22580;57.670;12.006;2023-02-17T02:23:55;100623.31;;;12.60;97.38
13013;BME280;22580;57.670;12.006;2023-02-17T02:26:52;100692.00;;;13.38;96.96
13013;BME280;22580;57.670;12.006;2023-02-17T02:32:50;100681.44;;;13.14;97.91
13013;BME280;22580;57.670;12.006;2023-02-17T02:35:23;100672.47;;;13.36;96.97
13013;BME280;22580;57.670;12.006;2023-02-17T02:37:59;100673.22;;;13.38;97.02
13013;BME280;22580;57.670;12.006;2023-02-17T02:40:34;100616.44;;;13.10;96.91
13013;BME280;22580;57.670;12.006;2023-02-17T02:43:03;100604.31;;;13.27;96.57
13013;BME280;22580;57.670;12.006;2023-02-17T02:45:32;100650.38;;;13.43;96.48
13013;BME280;22580;57.670;12.006;2023-02-17T02:48:03;100641.50;;;13.32;96.77
13013;BME280;22580;57.670;12.006;2023-02-17T02:50:40;100601.91;;;13.13;96.96
13013;BME280;22580;57.670;12.006;2023-02-17T02:53:27;100632.69;;;13.62;95.88
13013;BME280;22580;57.670;12.006;2023-02-17T02:56:05;100609.03;;;13.56;95.65
13013;BME280;22580;57.670;12.006;2023-02-17T02:58:46;100564.97;;;13.37;95.34
13013;BME280;22580;57.670;12.006;2023-02-17T03:01:24;100628.31;;;13.61;95.69
13013;BME280;22580;57.670;12.006;2023-02-17T03:04:01;100612.06;;;13.41;96.69
13013;BME280;22580;57.670;12.006;2023-02-17T03:06:47;100574.72;;;13.06;97.14
13013;BME280;22580;57.670;12.006;2023-02-17T03:09:20;100612.63;;;13.45;96.80
13013;BME280;22580;57.670;12.006;2023-02-17T03:11:48;100559.81;;;13.13;97.39
13013;BME280;22580;57.670;12.006;2023-02-17T03:14:20;100583.97;;;13.13;97.52
13013;BME280;22580;57.670;12.006;2023-02-17T03:16:49;100595.34;;;13.38;96.89
13013;BME280;22580;57.670;12.006;2023-02-17T03:19:21;100585.84;;;13.34;97.48
13013;BME280;22580;57.670;12.006;2023-02-17T03:21:51;100579.56;;;13.44;96.77
13013;BME280;22580;57.670;12.006;2023-02-17T03:24:18;100553.84;;;13.42;96.56
13013;BME280;22580;57.670;12.006;2023-02-17T03:26:45;100567.13;;;13.64;96.42
13013;BME280;22580;57.670;12.006;2023-02-17T03:29:14;100552.84;;;13.22;97.87
13013;BME280;22580;57.670;12.006;2023-02-17T03:31:43;100467.66;;;13.03;96.68
13013;BME280;22580;57.670;12.006;2023-02-17T03:34:10;100528.72;;;13.11;97.87
13013;BME280;22580;57.670;12.006;2023-02-17T03:36:42;100546.88;;;13.39;97.80
13013;BME280;22580;57.670;12.006;2023-02-17T03:39:12;100504.09;;;13.17;98.36
13013;BME280;22580;57.670;12.006;2023-02-17T03:41:41;100471.06;;;12.64;99.44
13013;BME280;22580;57.670;12.006;2023-02-17T03:44:08;100516.53;;;13.07;99.31
13013;BME280;22580;57.670;12.006;2023-02-17T03:46:38;100499.69;;;13.16;98.31
13013;BME280;22580;57.670;12.006;2023-02-17T03:49:12;100468.06;;;13.20;97.93
13013;BME280;22580;57.670;12.006;2023-02-17T03:51:43;100441.25;;;12.78;98.17
13013;BME280;22580;57.670;12.006;2023-02-17T03:54:12;100476.84;;;13.22;97.66
13013;BME280;22580;57.670;12.006;2023-02-17T03:56:39;100482.66;;;13.27;98.03
13013;BME280;22580;57.670;12.006;2023-02-17T03:59:08;100465.19;;;12.91;99.38
13013;BME280;22580;57.670;12.006;2023-02-17T04:01:39;100470.97;;;12.86;99.88
13013;BME280;22580;57.670;12.006;2023-02-17T04:04:06;100459.09;;;12.68;100.00
13013;BME280;22580;57.670;12.006;2023-02-17T04:06:34;100441.56;;;12.64;99.93
13013;BME280;22580;57.670;12.006;2023-02-17T04:09:02;100419.13;;;12.65;99.49
13013;BME280;22580;57.670;12.006;2023-02-17T04:11:30;100453.84;;;13.08;98.93
13013;BME280;22580;57.670;12.006;2023-02-17T04:13:57;100438.16;;;13.03;98.61
13013;BME280;22580;57.670;12.006;2023-02-17T04:16:24;100443.63;;;13.02;98.83
13013;BME280;22580;57.670;12.006;2023-02-17T04:18:51;100417.09;;;12.99;99.36
13013;BME280;22580;57.670;12.006;2023-02-17T04:21:19;100416.72;;;12.62;100.00
13013;BME280;22580;57.670;12.006;2023-02-17T04:23:47;100419.06;;;12.76;100.00
13013;BME280;22580;57.670;12.006;2023-02-17T04:26:25;100380.63;;;12.66;99.83
13013;BME280;22580;57.670;12.006;2023-02-17T04:28:52;100380.63;;;12.66;100.00
13013;BME280;22580;57.670;12.006;2023-02-17T04:31:21;100395.53;;;12.59;100.00
13013;BME280;22580;57.670;12.006;2023-02-17T04:33:50;100312.94;;;12.11;100.00
13013;BME280;22580;57.670;12.006;2023-02-17T04:36:20;100384.22;;;12.76;100.00
13013;BME280;22580;57.670;12.006;2023-02-17T04:38:47;100382.78;;;13.02;100.00
13013;BME280;22580;57.670;12.006;2023-02-17T04:41:13;100366.53;;;12.94;100.00
13013;BME280;22580;57.670;12.006;2023-02-17T04:43:44;100374.72;;;13.02;99.90
13013;BME280;22580;57.670;12.006;2023-02-17T04:46:11;100356.59;;;12.85;100.00
13013;BME280;22580;57.670;12.006;2023-02-17T04:48:39;100364.31;;;13.09;100.00
13013;BME280;22580;57.670;12.006;2023-02-17T04:51:08;100336.00;;;12.65;100.00
13013;BME280;22580;57.670;12.006;2023-02-17T04:53:42;100322.56;;;12.86;100.00
13013;BME280;22580;57.670;12.006;2023-02-17T04:56:12;100339.00;;;13.02;100.00
13013;BME280;22580;57.670;12.006;2023-02-17T04:58:46;100319.44;;;12.80;100.00
13013;BME280;22580;57.670;12.006;2023-02-17T05:01:24;100313.31;;;13.09;100.00
13013;BME280;22580;57.670;12.006;2023-02-17T05:03:53;100304.34;;;12.79;100.00
13013;BME280;22580;57.670;12.006;2023-02-17T05:06:20;100264.84;;;13.01;100.00
13013;BME280;22580;57.670;12.006;2023-02-17T05:08:47;100261.78;;;13.05;100.00
13013;BME280;22580;57.670;12.006;2023-02-17T05:11:23;100158.88;;;12.26;100.00
13013;BME280;22580;57.670;12.006;2023-02-17T05:13:51;100266.38;;;12.84;100.00
13013;BME280;22580;57.670;12.006;2023-02-17T05:16:18;100259.81;;;13.07;100.00
13013;BME280;22580;57.670;12.006;2023-02-17T05:18:55;100148.72;;;12.60;100.00
13013;BME280;22580;57.670;12.006;2023-02-17T05:21:22;100218.84;;;13.05;100.00
13013;BME280;22580;57.670;12.006;2023-02-17T05:23:49;100214.66;;;13.22;100.00
13013;BME280;22580;57.670;12.006;2023-02-17T05:26:20;100231.66;;;13.32;100.00
13013;BME280;22580;57.670;12.006;2023-02-17T05:28:47;100198.25;;;13.16;100.00
13013;BME280;22580;57.670;12.006;2023-02-17T05:31:21;100230.50;;;13.35;100.00
13013;BME280;22580;57.670;12.006;2023-02-17T05:33:52;100218.00;;;13.14;100.00
13013;BME280;22580;57.670;12.006;2023-02-17T05:36:19;100186.81;;;13.13;100.00
13013;BME280;22580;57.670;12.006;2023-02-17T05:38:48;100193.50;;;13.38;100.00
13013;BME280;22580;57.670;12.006;2023-02-17T05:41:17;100178.09;;;13.31;100.00
13013;BME280;22580;57.670;12.006;2023-02-17T05:43:44;100169.72;;;13.14;100.00
13013;BME280;22580;57.670;12.006;2023-02-17T05:46:11;100160.84;;;13.24;100.00
13013;BME280;22580;57.670;12.006;2023-02-17T05:48:44;100141.16;;;13.04;100.00
13013;BME280;22580;57.670;12.006;2023-02-17T05:51:14;100124.09;;;13.14;100.00
13013;BME280;22580;57.670;12.006;2023-02-17T05:53:45;100095.28;;;12.88;100.00
13013;BME280;22580;57.670;12.006;2023-02-17T05:56:13;100080.75;;;12.90;100.00
13013;BME280;22580;57.670;12.006;2023-02-17T05:58:40;100088.78;;;12.80;100.00
13013;BME280;22580;57.670;12.006;2023-02-17T06:01:08;100070.47;;;12.95;100.00
13013;BME280;22580;57.670;12.006;2023-02-17T06:03:54;100078.22;;;12.98;100.00
13013;BME280;22580;57.670;12.006;2023-02-17T06:06:24;100099.69;;;13.18;100.00
13013;BME280;22580;57.670;12.006;2023-02-17T06:08:54;99964.41;;;12.33;100.00
13013;BME280;22580;57.670;12.006;2023-02-17T06:11:23;100068.63;;;12.96;100.00
13013;BME280;22580;57.670;12.006;2023-02-17T06:13:52;100084.97;;;13.12;100.00
13013;BME280;22580;57.670;12.006;2023-02-17T06:16:20;100072.53;;;13.11;100.00
13013;BME280;22580;57.670;12.006;2023-02-17T06:18:47;100008.75;;;12.76;100.00
13013;BME280;22580;57.670;12.006;2023-02-17T06:21:24;100043.59;;;13.14;100.00
13013;BME280;22580;57.670;12.006;2023-02-17T06:23:53;100060.38;;;13.55;100.00
13013;BME280;22580;57.670;12.006;2023-02-17T06:26:22;100051.47;;;13.64;100.00
13013;BME280;22580;57.670;12.006;2023-02-17T06:28:52;99968.66;;;12.94;100.00
13013;BME280;22580;57.670;12.006;2023-02-17T06:31:19;100032.28;;;13.40;100.00
13013;BME280;22580;57.670;12.006;2023-02-17T06:33:46;100007.81;;;13.53;100.00
13013;BME280;22580;57.670;12.006;2023-02-17T06:36:15;99994.97;;;13.47;100.00
13013;BME280;22580;57.670;12.006;2023-02-17T06:38:47;100001.50;;;13.34;100.00
13013;BME280;22580;57.670;12.006;2023-02-17T06:41:14;99990.50;;;13.08;100.00
13013;BME280;22580;57.670;12.006;2023-02-17T06:43:41;100022.84;;;13.36;100.00
13013;BME280;22580;57.670;12.006;2023-02-17T06:46:09;99997.16;;;13.24;100.00
13013;BME280;22580;57.670;12.006;2023-02-17T06:48:37;99958.34;;;12.99;100.00
13013;BME280;22580;57.670;12.006;2023-02-17T06:51:14;99962.47;;;12.74;100.00
13013;BME280;22580;57.670;12.006;2023-02-17T06:53:41;99849.50;;;12.96;100.00
13013;BME280;22580;57.670;12.006;2023-02-17T06:56:14;99942.50;;;13.62;100.00
13013;BME280;22580;57.670;12.006;2023-02-17T06:58:44;99967.69;;;13.51;100.00
13013;BME280;22580;57.670;12.006;2023-02-17T07:01:15;99914.69;;;13.81;100.00
13013;BME280;22580;57.670;12.006;2023-02-17T07:03:47;99933.91;;;14.03;100.00
13013;BME280;22580;57.670;12.006;2023-02-17T07:06:23;99947.22;;;14.50;100.00
13013;BME280;22580;57.670;12.006;2023-02-17T07:08:53;99887.47;;;14.11;99.35
13013;BME280;22580;57.670;12.006;2023-02-17T07:11:22;99935.78;;;14.21;99.39
13013;BME280;22580;57.670;12.006;2023-02-17T07:13:53;99935.56;;;13.87;100.00
13013;BME280;22580;57.670;12.006;2023-02-17T07:16:27;99935.91;;;13.84;100.00
13013;BME280;22580;57.670;12.006;2023-02-17T07:18:56;99944.50;;;14.05;100.00
13013;BME280;22580;57.670;12.006;2023-02-17T07:21:23;99904.41;;;13.94;100.00
13013;BME280;22580;57.670;12.006;2023-02-17T07:23:51;99893.63;;;13.58;100.00
13013;BME280;22580;57.670;12.006;2023-02-17T07:26:18;99922.50;;;13.74;100.00
13013;BME280;22580;57.670;12.006;2023-02-17T07:28:52;99917.28;;;13.72;100.00
13013;BME280;22580;57.670;12.006;2023-02-17T07:31:19;99875.47;;;13.70;100.00
13013;BME280;22580;57.670;12.006;2023-02-17T07:33:53;99891.47;;;14.25;100.00
13013;BME280;22580;57.670;12.006;2023-02-17T07:36:27;99839.03;;;14.03;100.00
13013;BME280;22580;57.670;12.006;2023-02-17T07:39:05;99668.63;;;12.99;99.71
13013;BME280;22580;57.670;12.006;2023-02-17T07:41:33;99854.22;;;13.94;100.00
13013;BME280;22580;57.670;12.006;2023-02-17T07:44:03;99859.69;;;14.20;100.00
13013;BME280;22580;57.670;12.006;2023-02-17T07:46:33;99859.34;;;13.88;100.00
13013;BME280;22580;57.670;12.006;2023-02-17T07:49:03;99753.28;;;13.38;100.00
13013;BME280;22580;57.670;12.006;2023-02-17T07:51:30;99811.78;;;13.80;100.00
13013;BME280;22580;57.670;12.006;2023-02-17T07:54:03;99833.19;;;13.72;100.00
13013;BME280;22580;57.670;12.006;2023-02-17T07:56:30;99800.44;;;13.86;100.00
13013;BME280;22580;57.670;12.006;2023-02-17T07:59:08;99815.84;;;14.20;100.00
13013;BME280;22580;57.670;12.006;2023-02-17T08:01:44;99813.44;;;14.52;100.00
13013;BME280;22580;57.670;12.006;2023-02-17T08:04:15;99710.97;;;14.37;100.00
13013;BME280;22580;57.670;12.006;2023-02-17T08:06:45;99789.41;;;15.11;100.00
13013;BME280;22580;57.670;12.006;2023-02-17T08:09:12;99741.22;;;14.57;100.00
13013;BME280;22580;57.670;12.006;2023-02-17T08:11:57;99764.38;;;15.18;100.00
13013;BME280;22580;57.670;12.006;2023-02-17T08:14:42;99727.66;;;15.09;99.90
13013;BME280;22580;57.670;12.006;2023-02-17T08:17:17;99666.03;;;14.90;99.31
13013;BME280;22580;57.670;12.006;2023-02-17T08:19:59;99728.44;;;14.93;98.36
13013;BME280;22580;57.670;12.006;2023-02-17T08:22:27;99740.19;;;14.92;98.09
13013;BME280;22580;57.670;12.006;2023-02-17T08:25:05;99675.19;;;14.11;100.00
13013;BME280;22580;57.670;12.006;2023-02-17T08:27:34;99688.63;;;14.37;100.00
13013;BME280;22580;57.670;12.006;2023-02-17T08:30:10;99701.00;;;14.48;100.00
13013;BME280;22580;57.670;12.006;2023-02-17T08:32:45;99686.22;;;14.52;100.00
13013;BME280;22580;57.670;12.006;2023-02-17T08:35:15;99687.47;;;14.73;99.44
13013;BME280;22580;57.670;12.006;2023-02-17T08:37:47;99663.78;;;14.69;99.68
13013;BME280;22580;57.670;12.006;2023-02-17T08:40:23;99656.47;;;14.53;100.00
13013;BME280;22580;57.670;12.006;2023-02-17T08:42:53;99617.91;;;14.10;100.00
13013;BME280;22580;57.670;12.006;2023-02-17T08:45:24;99635.06;;;13.92;100.00
13013;BME280;22580;57.670;12.006;2023-02-17T08:47:51;99618.13;;;14.17;100.00
13013;BME280;22580;57.670;12.006;2023-02-17T08:50:23;99630.28;;;14.29;100.00
13013;BME280;22580;57.670;12.006;2023-02-17T08:52:50;99611.75;;;13.66;100.00
13013;BME280;22580;57.670;12.006;2023-02-17T08:55:20;99600.81;;;13.86;100.00
13013;BME280;22580;57.670;12.006;2023-02-17T08:57:49;99590.25;;;13.92;100.00
13013;BME280;22580;57.670;12.006;2023-02-17T09:00:18;99601.84;;;13.93;100.00
13013;BME280;22580;57.670;12.006;2023-02-17T09:02:54;99594.81;;;13.66;100.00
13013;BME280;22580;57.670;12.006;2023-02-17T09:05:24;99580.44;;;13.75;100.00
13013;BME280;22580;57.670;12.006;2023-02-17T09:07:53;99594.94;;;14.16;100.00
13013;BME280;22580;57.670;12.006;2023-02-17T09:10:20;99553.16;;;13.96;100.00
13013;BME280;22580;57.670;12.006;2023-02-17T09:12:51;99566.78;;;14.28;100.00
13013;BME280;22580;57.670;12.006;2023-02-17T09:15:23;99541.66;;;14.46;100.00
13013;BME280;22580;57.670;12.006;2023-02-17T09:17:57;99553.66;;;14.59;100.00
13013;BME280;22580;57.670;12.006;2023-02-17T09:20:41;99521.53;;;14.74;100.00
13013;BME280;22580;57.670;12.006;2023-02-17T09:23:15;99531.53;;;15.06;100.00
13013;BME280;22580;57.670;12.006;2023-02-17T09:25:44;99514.16;;;14.76;100.00
13013;BME280;22580;57.670;12.006;2023-02-17T09:28:12;99499.38;;;15.13;100.00
13013;BME280;22580;57.670;12.006;2023-02-17T09:30:41;99472.31;;;15.14;100.00
13013;BME280;22580;57.670;12.006;2023-02-17T09:33:15;99488.94;;;15.42;100.00
13013;BME280;22580;57.670;12.006;2023-02-17T09:35:44;99442.88;;;15.13;100.00
13013;BME280;22580;57.670;12.006;2023-02-17T09:38:11;99383.41;;;14.59;100.00
13013;BME280;22580;57.670;12.006;2023-02-17T09:40:45;99365.78;;;13.82;100.00
13013;BME280;22580;57.670;12.006;2023-02-17T09:43:15;99423.88;;;14.73;100.00
13013;BME280;22580;57.670;12.006;2023-02-17T09:45:46;99447.25;;;14.97;100.00
13013;BME280;22580;57.670;12.006;2023-02-17T09:48:26;99419.34;;;14.58;100.00
13013;BME280;22580;57.670;12.006;2023-02-17T09:51:05;99422.50;;;15.18;100.00
13013;BME280;22580;57.670;12.006;2023-02-17T09:53:50;99359.31;;;14.90;100.00
13013;BME280;22580;57.670;12.006;2023-02-17T09:56:22;99404.22;;;14.81;100.00
13013;BME280;22580;57.670;12.006;2023-02-17T09:58:54;99368.72;;;14.77;100.00
13013;BME280;22580;57.670;12.006;2023-02-17T10:01:34;99402.34;;;15.06;100.00
13013;BME280;22580;57.670;12.006;2023-02-17T10:04:06;99407.56;;;14.99;100.00
13013;BME280;22580;57.670;12.006;2023-02-17T10:06:45;99386.59;;;14.70;100.00
13013;BME280;22580;57.670;12.006;2023-02-17T10:09:21;99369.56;;;14.37;100.00
13013;BME280;22580;57.670;12.006;2023-02-17T10:12:05;99366.59;;;14.73;100.00
13013;BME280;22580;57.670;12.006;2023-02-17T10:14:41;99350.78;;;14.46;100.00
13013;BME280;22580;57.670;12.006;2023-02-17T10:17:14;99339.66;;;14.81;100.00
13013;BME280;22580;57.670;12.006;2023-02-17T10:19:50;99279.03;;;14.46;100.00
13013;BME280;22580;57.670;12.006;2023-02-17T10:22:24;99326.75;;;14.52;100.00
13013;BME280;22580;57.670;12.006;2023-02-17T10:24:54;99141.19;;;13.64;100.00
13013;BME280;22580;57.670;12.006;2023-02-17T10:27:35;99290.22;;;14.74;100.00
13013;BME280;22580;57.670;12.006;2023-02-17T10:30:20;99278.47;;;14.75;100.00
13013;BME280;22580;57.670;12.006;2023-02-17T10:32:58;99269.78;;;14.57;100.00
13013;BME280;22580;57.670;12.006;2023-02-17T10:35:48;99265.75;;;14.53;100.00
13013;BME280;22580;57.670;12.006;2023-02-17T10:38:47;99122.41;;;13.56;100.00
13013;BME280;22580;57.670;12.006;2023-02-17T10:41:45;99045.56;;;13.63;100.00
13013;BME280;22580;57.670;12.006;2023-02-17T10:44:21;99184.47;;;14.10;100.00
13013;BME280;22580;57.670;12.006;2023-02-17T10:46:54;99100.41;;;13.85;100.00
13013;BME280;22580;57.670;12.006;2023-02-17T10:49:26;99187.47;;;14.87;100.00
13013;BME280;22580;57.670;12.006;2023-02-17T10:51:58;99189.25;;;15.02;100.00
13013;BME280;22580;57.670;12.006;2023-02-17T10:54:32;99161.88;;;14.99;100.00
13013;BME280;22580;57.670;12.006;2023-02-17T10:57:04;99171.75;;;15.06;100.00
13013;BME280;22580;57.670;12.006;2023-02-17T10:59:38;99165.03;;;15.33;100.00
13013;BME280;22580;57.670;12.006;2023-02-17T11:02:17;99157.47;;;15.06;100.00
13013;BME280;22580;57.670;12.006;2023-02-17T11:04:47;99146.75;;;14.67;100.00
13013;BME280;22580;57.670;12.006;2023-02-17T11:07:26;99124.63;;;14.49;100.00
13013;BME280;22580;57.670;12.006;2023-02-17T11:10:01;99101.25;;;14.49;100.00
13013;BME280;22580;57.670;12.006;2023-02-17T11:12:33;99010.88;;;13.93;100.00
13013;BME280;22580;57.670;12.006;2023-02-17T11:15:17;99084.97;;;14.51;100.00
13013;BME280;22580;57.670;12.006;2023-02-17T11:17:57;99059.25;;;14.48;100.00
13013;BME280;22580;57.670;12.006;2023-02-17T11:20:36;99051.34;;;14.55;100.00
13013;BME280;22580;57.670;12.006;2023-02-17T11:23:26;98924.47;;;13.34;100.00
13013;BME280;22580;57.670;12.006;2023-02-17T11:26:08;99035.50;;;14.60;100.00
13013;BME280;22580;57.670;12.006;2023-02-17T11:28:44;99037.06;;;14.54;100.00
13013;BME280;22580;57.670;12.006;2023-02-17T11:31:35;99013.47;;;14.25;100.00
13013;BME280;22580;57.670;12.006;2023-02-17T11:34:21;99009.09;;;14.24;100.00
13013;BME280;22580;57.670;12.006;2023-02-17T11:36:58;98923.38;;;13.75;100.00
13013;BME280;22580;57.670;12.006;2023-02-17T11:39:45;98986.91;;;14.30;100.00
13013;BME280;22580;57.670;12.006;2023-02-17T11:42:14;98845.59;;;13.51;100.00
13013;BME280;22580;57.670;12.006;2023-02-17T11:44:45;98930.78;;;14.35;100.00
13013;BME280;22580;57.670;12.006;2023-02-17T11:47:19;98922.34;;;14.07;100.00
13013;BME280;22580;57.670;12.006;2023-02-17T11:49:59;98947.19;;;14.09;100.00
13013;BME280;22580;57.670;12.006;2023-02-17T11:52:45;98846.75;;;13.57;100.00
13013;BME280;22580;57.670;12.006;2023-02-17T11:55:28;98918.88;;;13.99;100.00
13013;BME280;22580;57.670;12.006;2023-02-17T11:58:15;98909.75;;;13.77;100.00
13013;BME280;22580;57.670;12.006;2023-02-17T12:00:54;98880.78;;;13.95;100.00
13013;BME280;22580;57.670;12.006;2023-02-17T12:03:50;98889.59;;;14.12;100.00
13013;BME280;22580;57.670;12.006;2023-02-17T12:06:32;98872.19;;;14.00;100.00
13013;BME280;22580;57.670;12.006;2023-02-17T12:09:16;98815.00;;;13.68;100.00
13013;BME280;22580;57.670;12.006;2023-02-17T12:12:15;98885.19;;;14.19;100.00
13013;BME280;22580;57.670;12.006;2023-02-17T12:14:59;98821.13;;;13.85;100.00
13013;BME280;22580;57.670;12.006;2023-02-17T12:17:40;98836.41;;;14.91;100.00
13013;BME280;22580;57.670;12.006;2023-02-17T12:20:35;98820.53;;;14.81;100.00
13013;BME280;22580;57.670;12.006;2023-02-17T12:23:33;98822.44;;;14.58;100.00
13013;BME280;22580;57.670;12.006;2023-02-17T12:26:14;98799.38;;;14.78;100.00
13013;BME280;22580;57.670;12.006;2023-02-17T12:29:05;98721.63;;;14.39;100.00
13013;BME280;22580;57.670;12.006;2023-02-17T12:31:55;98805.66;;;14.56;100.00
13013;BME280;22580;57.670;12.006;2023-02-17T12:34:33;98785.66;;;14.73;100.00
13013;BME280;22580;57.670;12.006;2023-02-17T12:37:04;98785.47;;;14.74;100.00
13013;BME280;22580;57.670;12.006;2023-02-17T12:39:40;98804.47;;;14.58;100.00
13013;BME280;22580;57.670;12.006;2023-02-17T12:42:15;98781.00;;;14.52;100.00
13013;BME280;22580;57.670;12.006;2023-02-17T12:45:04;98772.69;;;14.39;100.00
13013;BME280;22580;57.670;12.006;2023-02-17T12:47:38;98758.84;;;14.27;100.00
13013;BME280;22580;57.670;12.006;2023-02-17T12:50:15;98775.47;;;14.98;100.00
13013;BME280;22580;57.670;12.006;2023-02-17T12:52:47;98723.44;;;14.61;100.00
13013;BME280;22580;57.670;12.006;2023-02-17T12:55:26;98673.47;;;14.52;100.00
13013;BME280;22580;57.670;12.006;2023-02-17T12:58:06;98742.72;;;15.24;100.00
13013;BME280;22580;57.670;12.006;2023-02-17T13:00:47;98730.34;;;15.29;100.00
13013;BME280;22580;57.670;12.006;2023-02-17T13:03:35;98691.50;;;14.06;100.00
13013;BME280;22580;57.670;12.006;2023-02-17T13:06:08;98723.34;;;14.55;100.00
13013;BME280;22580;57.670;12.006;2023-02-17T13:08:51;98680.91;;;14.27;100.00
13013;BME280;22580;57.670;12.006;2023-02-17T13:11:26;98703.41;;;14.64;100.00
13013;BME280;22580;57.670;12.006;2023-02-17T13:14:19;98699.16;;;14.55;100.00
13013;BME280;22580;57.670;12.006;2023-02-17T13:16:55;98668.50;;;14.41;100.00